sensor_id;sensor_type;location;lat;lon;timestamp;temperature;humidity
47090;DHT22;32840;52.516;13.294;2022-11-09T00:00:42;13.10;99.90
47090;DHT22;32840;52.516;13.294;2022-11-09T00:03:26;13.10;99.90
47090;DHT22;32840;52.516;13.294;2022-11-09T00:06:11;13.10;99.90
47090;DHT22;32840;52.516;13.294;2022-11-09T00:08:57;13.10;99.90
47090;DHT22;32840;52.516;13.294;2022-11-09T00:11:41;13.10;99.90
47090;DHT22;32840;52.516;13.294;2022-11-09T00:14:26;13.10;99.90
47090;DHT22;32840;52.516;13.294;2022-11-09T00:17:11;13.10;99.90
47090;DHT22;32840;52.516;13.294;2022-11-09T00:19:56;13.10;99.90
47090;DHT22;32840;52.516;13.294;2022-11-09T00:22:41;13.20;99.90
47090;DHT22;32840;52.516;13.294;2022-11-09T00:25:26;13.20;99.90
47090;DHT22;32840;52.516;13.294;2022-11-09T00:28:11;13.20;99.90
47090;DHT22;32840;52.516;13.294;2022-11-09T00:31:00;13.20;99.90
47090;DHT22;32840;52.516;13.294;2022-11-09T00:33:49;13.20;99.90
47090;DHT22;32840;52.516;13.294;2022-11-09T00:36:34;13.20;99.90
47090;DHT22;32840;52.516;13.294;2022-11-09T00:39:19;13.10;99.90
47090;DHT22;32840;52.516;13.294;2022-11-09T00:42:04;13.10;99.90
47090;DHT22;32840;52.516;13.294;2022-11-09T00:44:50;13.10;99.90
47090;DHT22;32840;52.516;13.294;2022-11-09T00:47:35;13.10;99.90
47090;DHT22;32840;52.516;13.294;2022-11-09T00:50:21;13.10;99.90
47090;DHT22;32840;52.516;13.294;2022-11-09T00:53:06;13.10;99.90
47090;DHT22;32840;52.516;13.294;2022-11-09T00:56:05;13.10;99.90
47090;DHT22;32840;52.516;13.294;2022-11-09T00:58:52;13.10;99.90
47090;DHT22;32840;52.516;13.294;2022-11-09T01:01:38;13.10;99.90
47090;DHT22;32840;52.516;13.294;2022-11-09T01:04:23;13.10;99.90
47090;DHT22;32840;52.516;13.294;2022-11-09T01:07:08;13.00;99.90
47090;DHT22;32840;52.516;13.294;2022-11-09T01:09:53;13.00;99.90
47090;DHT22;32840;52.516;13.294;2022-11-09T01:12:38;13.10;99.90
47090;DHT22;32840;52.516;13.294;2022-11-09T01:15:23;13.00;99.90
47090;DHT22;32840;52.516;13.294;2022-11-09T01:18:08;13.10;99.90
47090;DHT22;32840;52.516;13.294;2022-11-09T01:20:54;13.00;99.90
47090;DHT22;32840;52.516;13.294;2022-11-09T01:23:39;13.00;99.90
47090;DHT22;32840;52.516;13.294;2022-11-09T01:26:24;12.90;99.90
47090;DHT22;32840;52.516;13.294;2022-11-09T01:29:09;12.90;99.90
47090;DHT22;32840;52.516;13.294;2022-11-09T01:31:54;12.90;99.90
47090;DHT22;32840;52.516;13.294;2022-11-09T01:34:39;12.90;99.90
47090;DHT22;32840;52.516;13.294;2022-11-09T01:37:24;12.90;99.90
47090;DHT22;32840;52.516;13.294;2022-11-09T01:40:10;12.90;99.90
47090;DHT22;32840;52.516;13.294;2022-11-09T01:42:55;12.90;99.90
47090;DHT22;32840;52.516;13.294;2022-11-09T01:45:47;12.90;99.90
47090;DHT22;32840;52.516;13.294;2022-11-09T01:48:45;12.90;99.90
47090;DHT22;32840;52.516;13.294;2022-11-09T01:51:33;12.90;99.90
47090;DHT22;32840;52.516;13.294;2022-11-09T01:54:30;12.90;99.90
47090;DHT22;32840;52.516;13.294;2022-11-09T01:57:31;12.90;99.90
47090;DHT22;32840;52.516;13.294;2022-11-09T02:00:17;12.80;99.90
47090;DHT22;32840;52.516;13.294;2022-11-09T02:03:08;12.80;99.90
47090;DHT22;32840;52.516;13.294;2022-11-09T02:05:55;12.80;99.90
47090;DHT22;32840;52.516;13.294;2022-11-09T02:08:41;12.70;99.90
47090;DHT22;32840;52.516;13.294;2022-11-09T02:11:27;12.70;99.90
47090;DHT22;32840;52.516;13.294;2022-11-09T02:14:13;12.70;99.90
47090;DHT22;32840;52.516;13.294;2022-11-09T02:16:58;12.60;99.90
47090;DHT22;32840;52.516;13.294;2022-11-09T02:19:43;12.60;99.90
47090;DHT22;32840;52.516;13.294;2022-11-09T02:22:28;12.60;99.90
47090;DHT22;32840;52.516;13.294;2022-11-09T02:25:14;12.60;99.90
47090;DHT22;32840;52.516;13.294;2022-11-09T02:27:59;12.60;99.90
47090;DHT22;32840;52.516;13.294;2022-11-09T02:30:48;12.60;99.90
47090;DHT22;32840;52.516;13.294;2022-11-09T02:33:53;12.50;99.90
47090;DHT22;32840;52.516;13.294;2022-11-09T02:36:39;12.50;99.90
47090;DHT22;32840;52.516;13.294;2022-11-09T02:39:26;12.50;99.90
47090;DHT22;32840;52.516;13.294;2022-11-09T02:42:13;12.50;99.90
47090;DHT22;32840;52.516;13.294;2022-11-09T02:44:59;12.50;99.90
47090;DHT22;32840;52.516;13.294;2022-11-09T02:47:45;12.50;99.90
47090;DHT22;32840;52.516;13.294;2022-11-09T02:50:29;12.40;99.90
47090;DHT22;32840;52.516;13.294;2022-11-09T02:53:15;12.50;99.90
47090;DHT22;32840;52.516;13.294;2022-11-09T02:56:00;12.40;99.90
47090;DHT22;32840;52.516;13.294;2022-11-09T02:58:46;12.40;99.90
47090;DHT22;32840;52.516;13.294;2022-11-09T03:01:30;12.40;99.90
47090;DHT22;32840;52.516;13.294;2022-11-09T03:04:16;12.40;99.90
47090;DHT22;32840;52.516;13.294;2022-11-09T03:07:01;12.40;99.90
47090;DHT22;32840;52.516;13.294;2022-11-09T03:09:46;12.40;99.90
47090;DHT22;32840;52.516;13.294;2022-11-09T03:12:31;12.40;99.90
47090;DHT22;32840;52.516;13.294;2022-11-09T03:15:16;12.50;99.90
47090;DHT22;32840;52.516;13.294;2022-11-09T03:18:01;12.50;99.90
47090;DHT22;32840;52.516;13.294;2022-11-09T03:20:46;12.60;99.90
47090;DHT22;32840;52.516;13.294;2022-11-09T03:23:31;12.60;99.90
47090;DHT22;32840;52.516;13.294;2022-11-09T03:26:17;12.60;99.90
47090;DHT22;32840;52.516;13.294;2022-11-09T03:29:02;12.70;99.90
47090;DHT22;32840;52.516;13.294;2022-11-09T03:31:47;12.70;99.90
47090;DHT22;32840;52.516;13.294;2022-11-09T03:34:31;12.70;99.90
47090;DHT22;32840;52.516;13.294;2022-11-09T03:37:16;12.70;99.90
47090;DHT22;32840;52.516;13.294;2022-11-09T03:40:02;12.70;99.90
47090;DHT22;32840;52.516;13.294;2022-11-09T03:42:47;12.70;99.90
47090;DHT22;32840;52.516;13.294;2022-11-09T03:45:32;12.80;99.90
47090;DHT22;32840;52.516;13.294;2022-11-09T03:48:17;12.80;99.90
47090;DHT22;32840;52.516;13.294;2022-11-09T03:51:02;12.80;99.90
47090;DHT22;32840;52.516;13.294;2022-11-09T03:53:47;12.80;99.90
47090;DHT22;32840;52.516;13.294;2022-11-09T03:56:32;12.90;99.90
47090;DHT22;32840;52.516;13.294;2022-11-09T03:59:17;12.80;99.90
47090;DHT22;32840;52.516;13.294;2022-11-09T04:02:03;12.80;99.90
47090;DHT22;32840;52.516;13.294;2022-11-09T04:04:47;12.90;99.90
47090;DHT22;32840;52.516;13.294;2022-11-09T04:07:33;12.90;99.90
47090;DHT22;32840;52.516;13.294;2022-11-09T04:10:18;12.90;99.90
47090;DHT22;32840;52.516;13.294;2022-11-09T04:13:03;12.90;99.90
47090;DHT22;32840;52.516;13.294;2022-11-09T04:15:49;12.90;99.90
47090;DHT22;32840;52.516;13.294;2022-11-09T04:18:33;12.90;99.90
47090;DHT22;32840;52.516;13.294;2022-11-09T04:21:18;12.90;99.90
47090;DHT22;32840;52.516;13.294;2022-11-09T04:24:03;12.90;99.90
47090;DHT22;32840;52.516;13.294;2022-11-09T04:26:48;12.90;99.90
47090;DHT22;32840;52.516;13.294;2022-11-09T04:29:33;12.90;99.90
47090;DHT22;32840;52.516;13.294;2022-11-09T04:32:19;13.00;99.90
47090;DHT22;32840;52.516;13.294;2022-11-09T04:35:04;12.90;99.90
47090;DHT22;32840;52.516;13.294;2022-11-09T04:38:00;13.00;99.90
47090;DHT22;32840;52.516;13.294;2022-11-09T04:40:44;12.90;99.90
47090;DHT22;32840;52.516;13.294;2022-11-09T04:43:29;13.00;99.90
47090;DHT22;32840;52.516;13.294;2022-11-09T04:46:15;13.00;99.90
47090;DHT22;32840;52.516;13.294;2022-11-09T04:49:00;12.90;99.90
47090;DHT22;32840;52.516;13.294;2022-11-09T04:51:45;12.90;99.90
47090;DHT22;32840;52.516;13.294;2022-11-09T04:54:30;12.90;99.90
47090;DHT22;32840;52.516;13.294;2022-11-09T04:57:15;12.90;99.90
47090;DHT22;32840;52.516;13.294;2022-11-09T05:00:00;12.90;99.90
47090;DHT22;32840;52.516;13.294;2022-11-09T05:02:45;12.90;99.90
47090;DHT22;32840;52.516;13.294;2022-11-09T05:05:32;12.90;99.90
47090;DHT22;32840;52.516;13.294;2022-11-09T05:08:17;13.00;99.90
47090;DHT22;32840;52.516;13.294;2022-11-09T05:11:02;12.90;99.90
47090;DHT22;32840;52.516;13.294;2022-11-09T05:13:47;12.90;99.90
47090;DHT22;32840;52.516;13.294;2022-11-09T05:16:33;13.00;99.90
47090;DHT22;32840;52.516;13.294;2022-11-09T05:19:18;13.00;99.90
47090;DHT22;32840;52.516;13.294;2022-11-09T05:22:03;13.00;99.90
47090;DHT22;32840;52.516;13.294;2022-11-09T05:25:07;13.00;99.90
47090;DHT22;32840;52.516;13.294;2022-11-09T05:27:52;13.00;99.90
47090;DHT22;32840;52.516;13.294;2022-11-09T05:30:37;12.90;99.90
47090;DHT22;32840;52.516;13.294;2022-11-09T05:33:22;12.90;99.90
47090;DHT22;32840;52.516;13.294;2022-11-09T05:36:07;12.90;99.90
47090;DHT22;32840;52.516;13.294;2022-11-09T05:38:52;12.90;99.90
47090;DHT22;32840;52.516;13.294;2022-11-09T05:41:37;12.90;99.90
47090;DHT22;32840;52.516;13.294;2022-11-09T05:44:22;12.90;99.90
47090;DHT22;32840;52.516;13.294;2022-11-09T05:47:07;12.90;99.90
47090;DHT22;32840;52.516;13.294;2022-11-09T05:49:52;12.90;99.90
47090;DHT22;32840;52.516;13.294;2022-11-09T05:52:37;12.90;99.90
47090;DHT22;32840;52.516;13.294;2022-11-09T05:55:22;12.90;99.90
47090;DHT22;32840;52.516;13.294;2022-11-09T05:58:08;12.90;99.90
47090;DHT22;32840;52.516;13.294;2022-11-09T06:00:53;13.00;99.90
47090;DHT22;32840;52.516;13.294;2022-11-09T06:03:38;12.90;99.90
47090;DHT22;32840;52.516;13.294;2022-11-09T06:06:26;13.00;99.90
47090;DHT22;32840;52.516;13.294;2022-11-09T06:09:11;13.00;99.90
47090;DHT22;32840;52.516;13.294;2022-11-09T06:11:56;13.00;99.90
47090;DHT22;32840;52.516;13.294;2022-11-09T06:14:41;13.00;99.90
47090;DHT22;32840;52.516;13.294;2022-11-09T06:17:26;13.00;99.90
47090;DHT22;32840;52.516;13.294;2022-11-09T06:20:11;13.00;99.90
47090;DHT22;32840;52.516;13.294;2022-11-09T06:22:57;13.10;99.90
47090;DHT22;32840;52.516;13.294;2022-11-09T06:25:42;13.10;99.90
47090;DHT22;32840;52.516;13.294;2022-11-09T06:28:28;13.10;99.90
47090;DHT22;32840;52.516;13.294;2022-11-09T06:31:15;13.10;99.90
47090;DHT22;32840;52.516;13.294;2022-11-09T06:34:00;13.10;99.90
47090;DHT22;32840;52.516;13.294;2022-11-09T06:36:45;13.10;99.90
47090;DHT22;32840;52.516;13.294;2022-11-09T06:39:30;13.10;99.90
47090;DHT22;32840;52.516;13.294;2022-11-09T06:42:15;13.10;99.90
47090;DHT22;32840;52.516;13.294;2022-11-09T06:45:00;13.10;99.90
47090;DHT22;32840;52.516;13.294;2022-11-09T06:47:45;13.10;99.90
47090;DHT22;32840;52.516;13.294;2022-11-09T06:50:31;13.10;99.90
47090;DHT22;32840;52.516;13.294;2022-11-09T06:53:16;13.10;99.90
47090;DHT22;32840;52.516;13.294;2022-11-09T06:56:03;13.10;99.90
47090;DHT22;32840;52.516;13.294;2022-11-09T06:58:48;13.10;99.90
47090;DHT22;32840;52.516;13.294;2022-11-09T07:01:33;13.10;99.90
47090;DHT22;32840;52.516;13.294;2022-11-09T07:04:18;13.10;99.90
47090;DHT22;32840;52.516;13.294;2022-11-09T07:07:03;13.00;99.90
47090;DHT22;32840;52.516;13.294;2022-11-09T07:09:48;13.00;99.90
47090;DHT22;32840;52.516;13.294;2022-11-09T07:12:33;13.00;99.90
47090;DHT22;32840;52.516;13.294;2022-11-09T07:15:19;13.00;99.90
47090;DHT22;32840;52.516;13.294;2022-11-09T07:18:06;12.90;99.90
47090;DHT22;32840;52.516;13.294;2022-11-09T07:20:51;13.00;99.90
47090;DHT22;32840;52.516;13.294;2022-11-09T07:23:36;13.00;99.90
47090;DHT22;32840;52.516;13.294;2022-11-09T07:26:20;12.90;99.90
47090;DHT22;32840;52.516;13.294;2022-11-09T07:29:05;13.00;99.90
47090;DHT22;32840;52.516;13.294;2022-11-09T07:31:50;12.90;99.90
47090;DHT22;32840;52.516;13.294;2022-11-09T07:34:35;12.90;99.90
47090;DHT22;32840;52.516;13.294;2022-11-09T07:37:20;12.90;99.90
47090;DHT22;32840;52.516;13.294;2022-11-09T07:40:06;12.90;99.90
47090;DHT22;32840;52.516;13.294;2022-11-09T07:42:52;12.90;99.90
47090;DHT22;32840;52.516;13.294;2022-11-09T07:45:37;12.90;99.90
47090;DHT22;32840;52.516;13.294;2022-11-09T07:48:22;12.90;99.90
47090;DHT22;32840;52.516;13.294;2022-11-09T07:51:08;12.90;99.90
47090;DHT22;32840;52.516;13.294;2022-11-09T07:53:53;12.90;99.90
47090;DHT22;32840;52.516;13.294;2022-11-09T07:56:37;12.90;99.90
47090;DHT22;32840;52.516;13.294;2022-11-09T07:59:22;12.90;99.90
47090;DHT22;32840;52.516;13.294;2022-11-09T08:02:08;12.90;99.90
47090;DHT22;32840;52.516;13.294;2022-11-09T08:04:53;12.90;99.90
47090;DHT22;32840;52.516;13.294;2022-11-09T08:07:38;12.90;99.90
47090;DHT22;32840;52.516;13.294;2022-11-09T08:10:25;12.90;99.90
47090;DHT22;32840;52.516;13.294;2022-11-09T08:13:12;12.90;99.90
47090;DHT22;32840;52.516;13.294;2022-11-09T08:16:00;12.90;99.90
47090;DHT22;32840;52.516;13.294;2022-11-09T08:18:45;12.90;99.90
47090;DHT22;32840;52.516;13.294;2022-11-09T08:21:30;12.90;99.90
47090;DHT22;32840;52.516;13.294;2022-11-09T08:24:15;13.00;99.90
47090;DHT22;32840;52.516;13.294;2022-11-09T08:27:00;13.00;99.90
47090;DHT22;32840;52.516;13.294;2022-11-09T08:29:45;13.00;99.90
47090;DHT22;32840;52.516;13.294;2022-11-09T08:32:30;13.00;99.90
47090;DHT22;32840;52.516;13.294;2022-11-09T08:35:17;13.00;99.90
47090;DHT22;32840;52.516;13.294;2022-11-09T08:38:04;13.00;99.90
47090;DHT22;32840;52.516;13.294;2022-11-09T08:40:49;13.10;99.90
47090;DHT22;32840;52.516;13.294;2022-11-09T08:43:34;13.00;99.90
47090;DHT22;32840;52.516;13.294;2022-11-09T08:46:19;13.00;99.90
47090;DHT22;32840;52.516;13.294;2022-11-09T08:49:04;13.10;99.90
47090;DHT22;32840;52.516;13.294;2022-11-09T08:51:50;13.10;99.90
47090;DHT22;32840;52.516;13.294;2022-11-09T08:54:35;13.10;99.90
47090;DHT22;32840;52.516;13.294;2022-11-09T08:57:21;13.10;99.90
47090;DHT22;32840;52.516;13.294;2022-11-09T09:00:06;13.10;99.90
47090;DHT22;32840;52.516;13.294;2022-11-09T09:02:51;13.10;99.90
47090;DHT22;32840;52.516;13.294;2022-11-09T09:05:36;13.20;99.90
47090;DHT22;32840;52.516;13.294;2022-11-09T09:08:21;13.20;99.90
47090;DHT22;32840;52.516;13.294;2022-11-09T09:11:06;13.30;99.90
47090;DHT22;32840;52.516;13.294;2022-11-09T09:13:51;13.20;99.90
47090;DHT22;32840;52.516;13.294;2022-11-09T09:16:36;13.30;99.90
47090;DHT22;32840;52.516;13.294;2022-11-09T09:19:21;13.20;99.90
47090;DHT22;32840;52.516;13.294;2022-11-09T09:22:06;13.30;99.90
47090;DHT22;32840;52.516;13.294;2022-11-09T09:24:51;13.30;99.90
47090;DHT22;32840;52.516;13.294;2022-11-09T09:27:36;13.40;99.90
47090;DHT22;32840;52.516;13.294;2022-11-09T09:30:21;13.40;99.90
47090;DHT22;32840;52.516;13.294;2022-11-09T09:33:06;13.50;99.90
47090;DHT22;32840;52.516;13.294;2022-11-09T09:35:53;13.50;99.90
47090;DHT22;32840;52.516;13.294;2022-11-09T09:38:38;13.60;99.90
47090;DHT22;32840;52.516;13.294;2022-11-09T09:50:13;13.60;99.90
47090;DHT22;32840;52.516;13.294;2022-11-09T09:55:46;13.60;99.90
47090;DHT22;32840;52.516;13.294;2022-11-09T09:58:37;13.50;99.90
47090;DHT22;32840;52.516;13.294;2022-11-09T10:01:36;13.50;99.90
47090;DHT22;32840;52.516;13.294;2022-11-09T10:04:23;13.40;99.90
47090;DHT22;32840;52.516;13.294;2022-11-09T10:07:29;13.40;99.90
47090;DHT22;32840;52.516;13.294;2022-11-09T10:10:25;13.40;99.90
47090;DHT22;32840;52.516;13.294;2022-11-09T10:19:55;13.50;99.90
47090;DHT22;32840;52.516;13.294;2022-11-09T10:22:53;13.50;99.90
47090;DHT22;32840;52.516;13.294;2022-11-09T10:25:44;13.50;99.90
47090;DHT22;32840;52.516;13.294;2022-11-09T10:28:29;13.40;99.90
47090;DHT22;32840;52.516;13.294;2022-11-09T10:31:20;13.40;99.90
47090;DHT22;32840;52.516;13.294;2022-11-09T10:34:19;13.40;99.90
47090;DHT22;32840;52.516;13.294;2022-11-09T10:37:31;13.40;99.90
47090;DHT22;32840;52.516;13.294;2022-11-09T10:43:13;13.70;99.90
47090;DHT22;32840;52.516;13.294;2022-11-09T10:46:07;13.80;99.90
47090;DHT22;32840;52.516;13.294;2022-11-09T10:48:53;13.90;99.90
47090;DHT22;32840;52.516;13.294;2022-11-09T10:51:41;13.90;99.90
47090;DHT22;32840;52.516;13.294;2022-11-09T10:54:32;13.90;99.90
47090;DHT22;32840;52.516;13.294;2022-11-09T10:57:20;13.90;99.90
47090;DHT22;32840;52.516;13.294;2022-11-09T11:00:13;13.80;99.90
47090;DHT22;32840;52.516;13.294;2022-11-09T11:03:18;13.90;99.90
47090;DHT22;32840;52.516;13.294;2022-11-09T11:06:05;13.90;99.90
47090;DHT22;32840;52.516;13.294;2022-11-09T11:12:25;13.90;99.90
47090;DHT22;32840;52.516;13.294;2022-11-09T11:18:23;14.00;99.90
47090;DHT22;32840;52.516;13.294;2022-11-09T11:21:19;14.10;99.90
47090;DHT22;32840;52.516;13.294;2022-11-09T11:24:19;14.20;99.90
47090;DHT22;32840;52.516;13.294;2022-11-09T11:27:26;14.20;99.90
47090;DHT22;32840;52.516;13.294;2022-11-09T11:30:20;14.30;99.90
47090;DHT22;32840;52.516;13.294;2022-11-09T11:33:16;14.30;99.90
47090;DHT22;32840;52.516;13.294;2022-11-09T11:45:15;14.30;99.90
47090;DHT22;32840;52.516;13.294;2022-11-09T11:51:22;14.40;99.90
47090;DHT22;32840;52.516;13.294;2022-11-09T12:00:46;14.70;99.90
47090;DHT22;32840;52.516;13.294;2022-11-09T12:04:02;14.70;99.90
47090;DHT22;32840;52.516;13.294;2022-11-09T12:07:10;14.70;99.90
47090;DHT22;32840;52.516;13.294;2022-11-09T12:16:18;14.80;99.90
47090;DHT22;32840;52.516;13.294;2022-11-09T12:31:22;14.60;99.90
47090;DHT22;32840;52.516;13.294;2022-11-09T12:34:32;14.80;99.90
47090;DHT22;32840;52.516;13.294;2022-11-09T12:37:45;14.90;99.90
47090;DHT22;32840;52.516;13.294;2022-11-09T12:40:38;15.00;99.90
47090;DHT22;32840;52.516;13.294;2022-11-09T12:43:43;15.00;99.90
47090;DHT22;32840;52.516;13.294;2022-11-09T12:46:34;15.10;99.90
47090;DHT22;32840;52.516;13.294;2022-11-09T12:52:19;15.10;99.90
47090;DHT22;32840;52.516;13.294;2022-11-09T12:55:10;15.00;99.90
47090;DHT22;32840;52.516;13.294;2022-11-09T12:57:57;15.00;99.90
47090;DHT22;32840;52.516;13.294;2022-11-09T13:03:35;14.90;99.90
47090;DHT22;32840;52.516;13.294;2022-11-09T13:06:27;14.90;99.90
47090;DHT22;32840;52.516;13.294;2022-11-09T13:12:16;14.80;99.90
47090;DHT22;32840;52.516;13.294;2022-11-09T13:15:23;14.80;99.90
47090;DHT22;32840;52.516;13.294;2022-11-09T13:27:43;14.70;99.90
47090;DHT22;32840;52.516;13.294;2022-11-09T13:30:40;14.70;99.90
47090;DHT22;32840;52.516;13.294;2022-11-09T13:33:27;14.70;99.90
47090;DHT22;32840;52.516;13.294;2022-11-09T13:36:15;14.60;99.90
47090;DHT22;32840;52.516;13.294;2022-11-09T13:42:28;14.60;99.90
47090;DHT22;32840;52.516;13.294;2022-11-09T13:48:45;14.60;99.90
47090;DHT22;32840;52.516;13.294;2022-11-09T13:57:16;14.50;99.90
47090;DHT22;32840;52.516;13.294;2022-11-09T14:00:04;14.50;99.90
47090;DHT22;32840;52.516;13.294;2022-11-09T14:02:59;14.40;99.90
47090;DHT22;32840;52.516;13.294;2022-11-09T14:05:48;14.40;99.90
47090;DHT22;32840;52.516;13.294;2022-11-09T14:08:35;14.40;99.90
47090;DHT22;32840;52.516;13.294;2022-11-09T14:11:36;14.40;99.90
47090;DHT22;32840;52.516;13.294;2022-11-09T14:17:33;14.30;99.90
47090;DHT22;32840;52.516;13.294;2022-11-09T14:23:29;14.30;99.90
47090;DHT22;32840;52.516;13.294;2022-11-09T14:26:22;14.30;99.90
47090;DHT22;32840;52.516;13.294;2022-11-09T14:29:26;14.30;99.90
47090;DHT22;32840;52.516;13.294;2022-11-09T14:38:18;14.20;99.90
47090;DHT22;32840;52.516;13.294;2022-11-09T14:41:03;14.20;99.90
47090;DHT22;32840;52.516;13.294;2022-11-09T14:43:49;14.20;99.90
47090;DHT22;32840;52.516;13.294;2022-11-09T14:46:35;14.10;99.90
47090;DHT22;32840;52.516;13.294;2022-11-09T14:49:21;14.20;99.90
47090;DHT22;32840;52.516;13.294;2022-11-09T14:52:14;14.20;99.90
47090;DHT22;32840;52.516;13.294;2022-11-09T14:55:00;14.10;99.90
47090;DHT22;32840;52.516;13.294;2022-11-09T14:57:46;14.10;99.90
47090;DHT22;32840;52.516;13.294;2022-11-09T15:00:33;14.00;99.90
47090;DHT22;32840;52.516;13.294;2022-11-09T15:03:24;14.10;99.90
47090;DHT22;32840;52.516;13.294;2022-11-09T15:06:13;14.00;99.90
47090;DHT22;32840;52.516;13.294;2022-11-09T15:09:13;14.00;99.90
47090;DHT22;32840;52.516;13.294;2022-11-09T15:11:59;14.00;99.90
47090;DHT22;32840;52.516;13.294;2022-11-09T15:14:49;14.00;99.90
47090;DHT22;32840;52.516;13.294;2022-11-09T15:17:36;14.00;99.90
47090;DHT22;32840;52.516;13.294;2022-11-09T15:20:31;14.00;99.90
47090;DHT22;32840;52.516;13.294;2022-11-09T15:23:37;13.90;99.90
47090;DHT22;32840;52.516;13.294;2022-11-09T15:26:26;13.90;99.90
47090;DHT22;32840;52.516;13.294;2022-11-09T15:32:22;13.80;99.90
47090;DHT22;32840;52.516;13.294;2022-11-09T15:35:15;13.80;99.90
47090;DHT22;32840;52.516;13.294;2022-11-09T15:38:00;13.80;99.90
47090;DHT22;32840;52.516;13.294;2022-11-09T15:40:47;13.80;99.90
47090;DHT22;32840;52.516;13.294;2022-11-09T15:43:32;13.80;99.90
47090;DHT22;32840;52.516;13.294;2022-11-09T15:46:23;13.80;99.90
47090;DHT22;32840;52.516;13.294;2022-11-09T15:49:22;13.80;99.90
47090;DHT22;32840;52.516;13.294;2022-11-09T15:52:10;13.70;99.90
47090;DHT22;32840;52.516;13.294;2022-11-09T15:54:55;13.70;99.90
47090;DHT22;32840;52.516;13.294;2022-11-09T15:57:41;13.70;99.90
47090;DHT22;32840;52.516;13.294;2022-11-09T16:00:26;13.60;99.90
47090;DHT22;32840;52.516;13.294;2022-11-09T16:03:11;13.60;99.90
47090;DHT22;32840;52.516;13.294;2022-11-09T16:05:56;13.60;99.90
47090;DHT22;32840;52.516;13.294;2022-11-09T16:08:46;13.60;99.90
47090;DHT22;32840;52.516;13.294;2022-11-09T16:11:31;13.60;99.90
47090;DHT22;32840;52.516;13.294;2022-11-09T16:14:17;13.60;99.90
47090;DHT22;32840;52.516;13.294;2022-11-09T16:17:04;13.60;99.90
47090;DHT22;32840;52.516;13.294;2022-11-09T16:19:50;13.60;99.90
47090;DHT22;32840;52.516;13.294;2022-11-09T16:22:35;13.60;99.90
47090;DHT22;32840;52.516;13.294;2022-11-09T16:25:21;13.60;99.90
47090;DHT22;32840;52.516;13.294;2022-11-09T16:28:06;13.60;99.90
47090;DHT22;32840;52.516;13.294;2022-11-09T16:30:51;13.60;99.90
47090;DHT22;32840;52.516;13.294;2022-11-09T16:33:36;13.60;99.90
47090;DHT22;32840;52.516;13.294;2022-11-09T16:36:22;13.60;99.90
47090;DHT22;32840;52.516;13.294;2022-11-09T16:39:08;13.50;99.90
47090;DHT22;32840;52.516;13.294;2022-11-09T16:41:59;13.50;99.90
47090;DHT22;32840;52.516;13.294;2022-11-09T16:44:46;13.50;99.90
47090;DHT22;32840;52.516;13.294;2022-11-09T16:47:37;13.50;99.90
47090;DHT22;32840;52.516;13.294;2022-11-09T16:50:23;13.50;99.90
47090;DHT22;32840;52.516;13.294;2022-11-09T16:53:09;13.50;99.90
47090;DHT22;32840;52.516;13.294;2022-11-09T16:55:54;13.40;99.90
47090;DHT22;32840;52.516;13.294;2022-11-09T16:58:39;13.40;99.90
47090;DHT22;32840;52.516;13.294;2022-11-09T17:01:24;13.40;99.90
47090;DHT22;32840;52.516;13.294;2022-11-09T17:04:09;13.40;99.90
47090;DHT22;32840;52.516;13.294;2022-11-09T17:06:55;13.40;99.90
47090;DHT22;32840;52.516;13.294;2022-11-09T17:09:40;13.40;99.90
47090;DHT22;32840;52.516;13.294;2022-11-09T17:12:24;13.40;99.90
47090;DHT22;32840;52.516;13.294;2022-11-09T17:15:09;13.40;99.90
47090;DHT22;32840;52.516;13.294;2022-11-09T17:17:55;13.40;99.90
47090;DHT22;32840;52.516;13.294;2022-11-09T17:20:44;13.40;99.90
47090;DHT22;32840;52.516;13.294;2022-11-09T17:23:30;13.30;99.90
47090;DHT22;32840;52.516;13.294;2022-11-09T17:26:15;13.30;99.90
47090;DHT22;32840;52.516;13.294;2022-11-09T17:29:00;13.40;99.90
47090;DHT22;32840;52.516;13.294;2022-11-09T17:31:45;13.30;99.90
47090;DHT22;32840;52.516;13.294;2022-11-09T17:34:30;13.30;99.90
47090;DHT22;32840;52.516;13.294;2022-11-09T17:37:15;13.30;99.90
47090;DHT22;32840;52.516;13.294;2022-11-09T17:40:00;13.30;99.90
47090;DHT22;32840;52.516;13.294;2022-11-09T17:42:45;13.30;99.90
47090;DHT22;32840;52.516;13.294;2022-11-09T17:45:33;13.30;99.90
47090;DHT22;32840;52.516;13.294;2022-11-09T17:48:18;13.20;99.90
47090;DHT22;32840;52.516;13.294;2022-11-09T17:51:04;13.20;99.90
47090;DHT22;32840;52.516;13.294;2022-11-09T17:53:49;13.20;99.90
47090;DHT22;32840;52.516;13.294;2022-11-09T17:56:35;13.10;99.90
47090;DHT22;32840;52.516;13.294;2022-11-09T17:59:20;13.20;99.90
47090;DHT22;32840;52.516;13.294;2022-11-09T18:02:05;13.10;99.90
47090;DHT22;32840;52.516;13.294;2022-11-09T18:04:50;13.20;99.90
47090;DHT22;32840;52.516;13.294;2022-11-09T18:07:35;13.20;99.90
47090;DHT22;32840;52.516;13.294;2022-11-09T18:10:20;13.20;99.90
47090;DHT22;32840;52.516;13.294;2022-11-09T18:13:05;13.20;99.90
47090;DHT22;32840;52.516;13.294;2022-11-09T18:15:50;13.30;99.90
47090;DHT22;32840;52.516;13.294;2022-11-09T18:18:35;13.40;99.90
47090;DHT22;32840;52.516;13.294;2022-11-09T18:21:22;13.50;99.90
47090;DHT22;32840;52.516;13.294;2022-11-09T18:24:08;13.50;99.90
47090;DHT22;32840;52.516;13.294;2022-11-09T18:26:53;13.50;99.90
47090;DHT22;32840;52.516;13.294;2022-11-09T18:29:38;13.50;99.90
47090;DHT22;32840;52.516;13.294;2022-11-09T18:32:24;13.50;99.90
47090;DHT22;32840;52.516;13.294;2022-11-09T18:35:10;13.60;99.90
47090;DHT22;32840;52.516;13.294;2022-11-09T18:37:56;13.60;99.90
47090;DHT22;32840;52.516;13.294;2022-11-09T18:40:41;13.60;99.90
47090;DHT22;32840;52.516;13.294;2022-11-09T18:43:27;13.60;99.90
47090;DHT22;32840;52.516;13.294;2022-11-09T18:46:14;13.60;99.90
47090;DHT22;32840;52.516;13.294;2022-11-09T18:49:00;13.60;99.90
47090;DHT22;32840;52.516;13.294;2022-11-09T18:51:45;13.70;99.90
47090;DHT22;32840;52.516;13.294;2022-11-09T18:54:30;13.70;99.90
47090;DHT22;32840;52.516;13.294;2022-11-09T18:57:16;13.70;99.90
47090;DHT22;32840;52.516;13.294;2022-11-09T19:00:02;13.70;99.90
47090;DHT22;32840;52.516;13.294;2022-11-09T19:02:47;13.70;99.90
47090;DHT22;32840;52.516;13.294;2022-11-09T19:05:32;13.70;99.90
47090;DHT22;32840;52.516;13.294;2022-11-09T19:08:21;13.70;99.90
47090;DHT22;32840;52.516;13.294;2022-11-09T19:11:25;13.70;99.90